Time;durP1;ratioP1;P1;durP2;ratioP2;P2;SDS_P1;SDS_P2;PMS_P1;PMS_P2;Temp;Humidity;BMP_temperature;BMP_pressure;BME280_temperature;BME280_humidity;BME280_pressure;Samples;Min_cycle;Max_cycle;Signal;HPM_P1;HPM_P2
2020/12/25 00:01:47;;;;;;;8.98;3.30;;;2.40;99.90;;;;;;5022867;28;20058;-69
2020/12/25 00:04:14;;;;;;;6.93;3.22;;;2.40;99.90;;;;;;5013448;28;20137;-70
2020/12/25 00:06:40;;;;;;;6.68;3.50;;;2.40;99.90;;;;;;5007639;28;20054;-69
2020/12/25 00:09:07;;;;;;;9.15;3.60;;;2.40;99.90;;;;;;5012063;28;20124;-69
2020/12/25 00:11:36;;;;;;;6.95;2.97;;;2.50;99.90;;;;;;5006562;28;20062;-69
2020/12/25 00:14:03;;;;;;;8.13;2.90;;;2.50;99.90;;;;;;5006451;28;20572;-69
2020/12/25 00:16:30;;;;;;;8.50;3.70;;;2.50;99.90;;;;;;5008588;28;20077;-69
2020/12/25 00:18:57;;;;;;;6.10;2.83;;;2.50;99.90;;;;;;5004995;28;20149;-70
2020/12/25 00:21:24;;;;;;;10.77;3.40;;;2.50;99.90;;;;;;5007523;28;20446;-69
2020/12/25 00:23:51;;;;;;;12.40;3.47;;;2.60;99.90;;;;;;5008092;28;20159;-69
2020/12/25 00:26:31;;;;;;;10.35;3.47;;;2.60;99.90;;;;;;5007530;28;20535;-69
2020/12/25 00:28:58;;;;;;;8.13;3.85;;;2.70;99.90;;;;;;5009570;28;20533;-69
2020/12/25 00:31:29;;;;;;;10.73;4.32;;;2.70;99.90;;;;;;5011234;28;20555;-69
2020/12/25 00:33:57;;;;;;;11.52;3.45;;;2.70;99.90;;;;;;5012076;28;20048;-70
2020/12/25 00:36:35;;;;;;;8.40;2.80;;;2.70;99.90;;;;;;4998094;28;20527;-69
2020/12/25 00:39:06;;;;;;;12.32;3.22;;;2.80;99.90;;;;;;5010981;28;20642;-69
2020/12/25 00:41:32;;;;;;;12.55;3.22;;;2.70;99.90;;;;;;5010967;28;20521;-69
2020/12/25 00:43:58;;;;;;;11.70;3.58;;;2.70;99.90;;;;;;5011579;28;20478;-70
2020/12/25 00:46:25;;;;;;;8.25;3.20;;;2.80;99.90;;;;;;5011671;28;20100;-69
2020/12/25 00:48:52;;;;;;;11.10;4.00;;;2.80;99.90;;;;;;5010758;28;20125;-69
2020/12/25 00:51:20;;;;;;;9.55;3.22;;;2.80;99.90;;;;;;5009833;28;20042;-69
2020/12/25 00:53:47;;;;;;;15.13;4.03;;;2.80;99.90;;;;;;5011299;28;20133;-70
2020/12/25 00:56:15;;;;;;;5.07;2.60;;;2.80;99.90;;;;;;5010169;28;20125;-69
2020/12/25 00:58:42;;;;;;;9.93;3.05;;;2.80;99.90;;;;;;5011594;28;20472;-69
2020/12/25 01:01:12;;;;;;;11.70;3.55;;;2.80;99.90;;;;;;5010740;28;20053;-69
2020/12/25 01:03:39;;;;;;;11.07;3.50;;;2.70;99.90;;;;;;5010576;28;20452;-70
2020/12/25 01:06:17;;;;;;;10.70;3.40;;;2.70;99.90;;;;;;5009301;28;20459;-69
2020/12/25 01:08:48;;;;;;;9.52;3.17;;;2.70;99.90;;;;;;5008487;28;20092;-70
2020/12/25 01:11:16;;;;;;;10.48;3.78;;;2.70;99.90;;;;;;4992959;28;20085;-69
2020/12/25 01:13:44;;;;;;;9.13;3.33;;;2.70;99.90;;;;;;4992436;28;20092;-69
2020/12/25 01:16:17;;;;;;;15.07;3.53;;;2.70;99.90;;;;;;5020778;28;20124;-69
2020/12/25 01:18:45;;;;;;;10.55;3.33;;;2.70;99.90;;;;;;5011210;28;20060;-69
2020/12/25 01:21:12;;;;;;;14.88;3.47;;;2.70;99.90;;;;;;5029054;28;20212;-69
2020/12/25 01:23:38;;;;;;;11.27;3.38;;;2.80;99.90;;;;;;5023842;28;20129;-69
2020/12/25 01:26:05;;;;;;;5.80;2.80;;;2.80;99.90;;;;;;5005850;28;20105;-69
2020/12/25 01:28:32;;;;;;;10.63;2.90;;;2.80;99.90;;;;;;5008729;28;20121;-70
2020/12/25 01:30:58;;;;;;;12.50;3.22;;;2.90;99.90;;;;;;5011305;28;20052;-69
2020/12/25 01:33:24;;;;;;;12.60;2.88;;;2.90;99.90;;;;;;5010460;28;20471;-70
2020/12/25 01:35:51;;;;;;;12.43;3.85;;;2.90;99.90;;;;;;5009774;28;20129;-69
2020/12/25 01:38:17;;;;;;;10.00;3.25;;;2.90;99.90;;;;;;5010205;28;20225;-70
2020/12/25 01:40:44;;;;;;;11.70;2.75;;;2.90;99.90;;;;;;5009697;28;20605;-70
2020/12/25 01:43:11;;;;;;;8.60;2.67;;;2.90;99.90;;;;;;5009535;28;20046;-69
2020/12/25 01:45:37;;;;;;;7.53;2.33;;;2.80;99.90;;;;;;4998008;28;20056;-69
2020/12/25 01:48:04;;;;;;;9.18;3.47;;;2.80;99.90;;;;;;5010000;28;20054;-69
2020/12/25 01:50:31;;;;;;;7.80;4.18;;;2.80;99.90;;;;;;5010710;28;20046;-69
2020/12/25 01:52:59;;;;;;;11.23;3.10;;;2.80;99.90;;;;;;5009437;28;20137;-69
2020/12/25 01:55:29;;;;;;;12.88;2.80;;;2.80;99.90;;;;;;4998751;28;20037;-69
2020/12/25 01:57:57;;;;;;;7.47;2.53;;;2.80;99.90;;;;;;5009967;28;20064;-70
2020/12/25 02:00:23;;;;;;;9.13;2.92;;;2.70;99.90;;;;;;5002602;28;20126;-70
2020/12/25 02:02:50;;;;;;;8.68;2.70;;;2.70;99.90;;;;;;4991041;28;20085;-69
2020/12/25 02:05:17;;;;;;;8.20;2.90;;;2.60;99.90;;;;;;5024359;28;20493;-69
2020/12/25 02:07:44;;;;;;;6.97;3.40;;;2.50;99.90;;;;;;5009816;28;20136;-69
2020/12/25 02:10:12;;;;;;;7.97;2.63;;;2.40;99.90;;;;;;5010186;28;20042;-69
2020/12/25 02:12:39;;;;;;;7.38;2.75;;;2.40;99.90;;;;;;5009789;28;20129;-69
2020/12/25 02:15:07;;;;;;;7.43;2.70;;;2.40;99.90;;;;;;5009968;28;20046;-69
2020/12/25 02:17:33;;;;;;;13.35;3.03;;;2.40;99.90;;;;;;5000226;28;20046;-69
2020/12/25 02:20:02;;;;;;;13.88;3.88;;;2.40;99.90;;;;;;4995325;28;20086;-69
2020/12/25 02:22:29;;;;;;;7.03;3.17;;;2.40;99.90;;;;;;5010126;28;20211;-69
2020/12/25 02:24:56;;;;;;;10.32;3.80;;;2.40;99.90;;;;;;5009553;28;20100;-69
2020/12/25 02:27:22;;;;;;;11.40;2.80;;;2.50;99.90;;;;;;5009863;28;20092;-69
2020/12/25 02:29:49;;;;;;;9.10;3.28;;;2.60;99.90;;;;;;5009310;28;20495;-69
2020/12/25 02:32:15;;;;;;;6.90;2.83;;;2.70;99.90;;;;;;5009332;28;20153;-69
2020/12/25 02:34:41;;;;;;;7.47;2.83;;;2.60;99.90;;;;;;5008612;28;20050;-69
2020/12/25 02:37:08;;;;;;;10.48;3.15;;;2.70;99.90;;;;;;5009668;28;20144;-69
2020/12/25 02:39:34;;;;;;;9.48;2.45;;;2.70;99.90;;;;;;5009936;28;20054;-69
2020/12/25 02:42:01;;;;;;;9.10;3.10;;;2.70;99.90;;;;;;5008783;28;20052;-69
2020/12/25 02:44:27;;;;;;;10.32;3.75;;;2.80;99.90;;;;;;5009778;28;20524;-69
2020/12/25 02:46:54;;;;;;;7.47;2.90;;;2.80;99.90;;;;;;5008854;28;20053;-69
2020/12/25 02:49:20;;;;;;;8.30;3.20;;;2.70;99.90;;;;;;5009521;28;20522;-69
2020/12/25 02:51:48;;;;;;;10.77;3.20;;;2.70;99.90;;;;;;5007136;28;20048;-69
2020/12/25 02:54:14;;;;;;;8.55;2.65;;;2.60;99.90;;;;;;5009751;28;20077;-69
2020/12/25 02:56:40;;;;;;;7.32;2.35;;;2.70;99.90;;;;;;5009179;28;20111;-70
2020/12/25 02:59:07;;;;;;;7.47;2.30;;;2.70;99.90;;;;;;5009694;28;20069;-70
2020/12/25 03:01:33;;;;;;;7.57;2.95;;;2.70;99.90;;;;;;5008239;28;20137;-69
2020/12/25 03:03:59;;;;;;;11.75;2.50;;;2.70;99.90;;;;;;5009807;28;20468;-69
2020/12/25 03:06:25;;;;;;;7.63;2.30;;;2.60;99.90;;;;;;5007735;28;20054;-69
2020/12/25 03:08:52;;;;;;;7.45;2.35;;;2.70;99.90;;;;;;4999457;28;20525;-69
2020/12/25 03:11:18;;;;;;;8.68;2.85;;;2.70;99.90;;;;;;5008978;28;20112;-69
2020/12/25 03:13:45;;;;;;;9.75;2.72;;;2.70;99.90;;;;;;5008741;28;20188;-69
2020/12/25 03:16:11;;;;;;;7.93;2.78;;;2.70;99.90;;;;;;5009006;28;20049;-69
2020/12/25 03:18:37;;;;;;;8.48;3.20;;;2.70;99.90;;;;;;5007545;28;20177;-69
2020/12/25 03:21:04;;;;;;;8.55;2.33;;;2.80;99.90;;;;;;5010895;28;20060;-69
2020/12/25 03:23:30;;;;;;;7.38;3.00;;;2.80;99.90;;;;;;5007404;28;20091;-69
2020/12/25 03:25:57;;;;;;;5.22;2.65;;;2.70;99.90;;;;;;5011056;28;20147;-69
2020/12/25 03:28:23;;;;;;;10.68;2.60;;;2.70;99.90;;;;;;5019146;28;20161;-69
2020/12/25 03:30:50;;;;;;;7.38;2.80;;;2.80;99.90;;;;;;5014584;28;20080;-69
2020/12/25 03:33:16;;;;;;;6.72;3.22;;;2.70;99.90;;;;;;5008883;28;20046;-69
2020/12/25 03:35:49;;;;;;;7.05;2.55;;;2.70;99.90;;;;;;5008171;28;20042;-66
2020/12/25 03:38:15;;;;;;;8.63;2.90;;;2.70;99.90;;;;;;5015455;28;20129;-67
2020/12/25 03:40:41;;;;;;;6.10;3.00;;;2.70;99.90;;;;;;5012997;28;20152;-67
2020/12/25 03:43:08;;;;;;;10.05;2.75;;;2.70;99.90;;;;;;5018698;28;20134;-67
2020/12/25 03:45:34;;;;;;;7.38;2.67;;;2.80;99.90;;;;;;5009414;28;20069;-68
2020/12/25 03:48:01;;;;;;;6.22;3.47;;;2.80;99.90;;;;;;5008163;28;20050;-68
2020/12/25 03:50:28;;;;;;;6.35;2.83;;;2.70;99.90;;;;;;5009965;28;20056;-67
2020/12/25 03:52:54;;;;;;;7.05;3.20;;;2.70;99.90;;;;;;5009648;28;20046;-68
2020/12/25 03:55:20;;;;;;;8.40;3.25;;;2.60;99.90;;;;;;5008636;28;20092;-67
2020/12/25 03:57:47;;;;;;;6.75;2.95;;;2.60;99.90;;;;;;5012130;28;20137;-68
2020/12/25 04:00:13;;;;;;;8.95;3.53;;;2.50;99.90;;;;;;5008031;28;20140;-67
2020/12/25 04:02:40;;;;;;;6.45;2.67;;;2.50;99.90;;;;;;5012484;28;20144;-67
2020/12/25 04:05:06;;;;;;;7.65;3.15;;;2.50;99.90;;;;;;5013649;28;20088;-67
2020/12/25 04:07:32;;;;;;;7.63;2.80;;;2.60;99.90;;;;;;5012668;28;20077;-67
2020/12/25 04:09:58;;;;;;;6.25;2.83;;;2.60;99.90;;;;;;5020217;28;20043;-67
2020/12/25 04:12:25;;;;;;;5.63;2.92;;;2.50;99.90;;;;;;5021128;28;20148;-67
2020/12/25 04:14:51;;;;;;;8.98;2.97;;;2.50;99.90;;;;;;5012490;28;20513;-67
2020/12/25 04:17:18;;;;;;;7.35;3.00;;;2.50;99.90;;;;;;5029288;28;20444;-68
2020/12/25 04:19:44;;;;;;;7.45;3.45;;;2.50;99.90;;;;;;5017795;28;20164;-67
2020/12/25 04:22:11;;;;;;;8.35;3.45;;;2.50;99.90;;;;;;5011495;28;20191;-67
2020/12/25 04:24:37;;;;;;;8.20;3.83;;;2.50;99.90;;;;;;5012351;28;20057;-68
2020/12/25 04:27:04;;;;;;;6.70;3.55;;;2.50;99.90;;;;;;5012413;28;20081;-67
2020/12/25 04:29:30;;;;;;;7.63;3.55;;;2.50;99.90;;;;;;5012325;28;20050;-67
2020/12/25 04:31:56;;;;;;;6.85;3.17;;;2.60;99.90;;;;;;5021102;28;20513;-67
2020/12/25 04:34:23;;;;;;;5.25;3.20;;;2.60;99.90;;;;;;5012212;28;20535;-67
2020/12/25 04:36:49;;;;;;;11.20;3.95;;;2.60;99.90;;;;;;5022677;28;20095;-68
2020/12/25 04:39:16;;;;;;;8.35;4.03;;;2.60;99.90;;;;;;5021273;28;20049;-68
2020/12/25 04:41:42;;;;;;;7.75;3.50;;;2.70;99.90;;;;;;5019246;28;20048;-67
2020/12/25 04:44:09;;;;;;;7.70;3.85;;;2.70;99.90;;;;;;5027348;28;20060;-67
2020/12/25 04:46:35;;;;;;;9.77;4.43;;;2.70;99.90;;;;;;5028315;28;20051;-68
2020/12/25 04:49:02;;;;;;;6.53;3.20;;;2.70;99.90;;;;;;5011812;28;20038;-67
2020/12/25 04:51:28;;;;;;;11.27;3.35;;;2.80;99.90;;;;;;5018760;28;20053;-68
2020/12/25 04:53:55;;;;;;;9.68;3.60;;;2.80;99.90;;;;;;5022554;28;20041;-67
2020/12/25 04:56:23;;;;;;;7.50;3.22;;;2.80;99.90;;;;;;5012226;28;20041;-67
2020/12/25 04:58:51;;;;;;;5.72;2.67;;;2.80;99.90;;;;;;5009633;28;20050;-67
2020/12/25 05:01:18;;;;;;;7.68;3.50;;;2.70;99.90;;;;;;5009796;28;20404;-68
2020/12/25 05:03:45;;;;;;;10.13;3.45;;;2.70;99.90;;;;;;5006121;28;20137;-68
2020/12/25 05:06:17;;;;;;;5.85;3.10;;;2.70;99.90;;;;;;5015979;28;20129;-68
2020/12/25 05:08:46;;;;;;;5.53;3.28;;;2.70;99.90;;;;;;5011361;28;20046;-68
2020/12/25 05:11:16;;;;;;;7.07;3.67;;;2.70;99.90;;;;;;5024075;28;20050;-68
2020/12/25 05:13:49;;;;;;;9.98;4.72;;;2.60;99.90;;;;;;5022757;28;20440;-67
2020/12/25 05:16:16;;;;;;;7.00;4.18;;;2.60;99.90;;;;;;5012737;28;20069;-68
2020/12/25 05:18:45;;;;;;;6.55;3.03;;;2.60;99.90;;;;;;5010140;28;20045;-67
2020/12/25 05:21:13;;;;;;;8.93;3.72;;;2.60;99.90;;;;;;5021101;28;20053;-68
2020/12/25 05:23:41;;;;;;;5.88;3.50;;;2.60;99.90;;;;;;5011235;28;20054;-68
2020/12/25 05:26:10;;;;;;;7.60;3.85;;;2.60;99.90;;;;;;5024507;28;20050;-68
2020/12/25 05:28:43;;;;;;;8.07;4.50;;;2.60;99.90;;;;;;5012033;28;20137;-68
2020/12/25 05:31:12;;;;;;;11.23;4.00;;;2.60;99.90;;;;;;5018783;28;20072;-68
2020/12/25 05:33:38;;;;;;;6.80;3.67;;;2.50;99.90;;;;;;5019089;28;20127;-68
2020/12/25 05:36:10;;;;;;;10.27;3.80;;;2.50;99.90;;;;;;5012509;28;20052;-68
2020/12/25 05:38:38;;;;;;;12.27;4.60;;;2.50;99.90;;;;;;5023516;28;20582;-67
2020/12/25 05:41:06;;;;;;;10.10;4.55;;;2.50;99.90;;;;;;5010107;28;20486;-68
2020/12/25 05:43:34;;;;;;;10.63;4.90;;;2.50;99.90;;;;;;5015260;28;20050;-68
2020/12/25 05:46:00;;;;;;;9.90;4.93;;;2.50;99.90;;;;;;5010102;28;20104;-68
2020/12/25 05:48:27;;;;;;;7.65;4.18;;;2.50;99.90;;;;;;5023709;28;20059;-68
2020/12/25 05:50:53;;;;;;;9.60;4.82;;;2.60;99.90;;;;;;5017335;28;20057;-68
2020/12/25 05:53:20;;;;;;;9.40;5.32;;;2.60;99.90;;;;;;5019558;28;20128;-68
2020/12/25 05:55:47;;;;;;;7.72;4.50;;;2.60;99.90;;;;;;5014629;28;20138;-67
2020/12/25 05:58:15;;;;;;;11.88;6.00;;;2.70;99.90;;;;;;5028648;28;20140;-67
2020/12/25 06:00:42;;;;;;;14.15;5.20;;;2.50;99.90;;;;;;5011030;28;20084;-68
2020/12/25 06:03:15;;;;;;;10.82;5.65;;;2.50;99.90;;;;;;5030524;28;20045;-68
2020/12/25 06:05:45;;;;;;;12.13;5.55;;;2.40;99.90;;;;;;5024698;28;20076;-68
2020/12/25 06:08:19;;;;;;;9.63;6.47;;;2.40;99.90;;;;;;5030083;28;20127;-68
2020/12/25 06:10:46;;;;;;;11.95;5.60;;;2.40;99.90;;;;;;5007103;28;20046;-68
2020/12/25 06:13:14;;;;;;;10.50;5.15;;;2.40;99.90;;;;;;5010306;28;20054;-68
2020/12/25 06:15:49;;;;;;;10.48;6.00;;;2.50;99.90;;;;;;5017169;28;20124;-68
2020/12/25 06:18:40;;;;;;;10.15;5.80;;;2.50;99.90;;;;;;5023620;28;20041;-67
2020/12/25 06:21:14;;;;;;;10.45;5.68;;;2.60;99.90;;;;;;5012736;28;20165;-67
2020/12/25 06:23:43;;;;;;;9.48;5.22;;;2.60;99.90;;;;;;4999706;28;20149;-68
2020/12/25 06:26:10;;;;;;;11.20;5.95;;;2.60;99.90;;;;;;5009935;28;20425;-68
2020/12/25 06:28:41;;;;;;;9.43;5.15;;;2.60;99.90;;;;;;5012765;28;20140;-68
2020/12/25 06:31:27;;;;;;;9.82;5.53;;;2.50;99.90;;;;;;5010991;28;20038;-68
2020/12/25 06:33:54;;;;;;;13.48;6.78;;;2.50;99.90;;;;;;5008274;28;20065;-68
2020/12/25 06:36:44;;;;;;;11.40;6.50;;;2.50;99.90;;;;;;5008961;28;20136;-68
2020/12/25 06:39:16;;;;;;;11.35;7.07;;;2.50;99.90;;;;;;4989199;28;20128;-68
2020/12/25 06:41:43;;;;;;;11.57;6.40;;;2.50;99.90;;;;;;5022015;28;20156;-68
2020/12/25 06:44:14;;;;;;;10.00;6.30;;;2.50;99.90;;;;;;5025800;28;20167;-68
2020/12/25 06:46:50;;;;;;;14.25;7.38;;;2.50;99.90;;;;;;5021108;28;20053;-68
2020/12/25 06:49:19;;;;;;;8.20;4.90;;;2.50;99.90;;;;;;5020771;28;20060;-68
2020/12/25 06:51:47;;;;;;;10.48;6.47;;;2.50;99.90;;;;;;5014488;28;20598;-67
2020/12/25 06:54:18;;;;;;;12.57;6.28;;;2.50;99.90;;;;;;5021155;28;20073;-68
2020/12/25 06:56:47;;;;;;;11.70;6.57;;;2.50;99.90;;;;;;5013609;28;20077;-68
2020/12/25 06:59:15;;;;;;;9.40;5.55;;;2.50;99.90;;;;;;5009350;28;20088;-69
2020/12/25 07:01:44;;;;;;;13.40;7.38;;;2.60;99.90;;;;;;5020159;28;20085;-68
2020/12/25 07:04:29;;;;;;;12.52;6.82;;;2.60;99.90;;;;;;5020211;28;20510;-68
2020/12/25 07:07:01;;;;;;;10.48;6.38;;;2.60;99.90;;;;;;5020984;28;20129;-68
2020/12/25 07:09:44;;;;;;;11.13;6.38;;;2.60;99.90;;;;;;5009639;28;20133;-68
2020/12/25 07:12:22;;;;;;;11.73;6.47;;;2.70;99.90;;;;;;5000387;28;20060;-68
2020/12/25 07:14:49;;;;;;;12.90;6.88;;;2.60;99.90;;;;;;5009482;28;20184;-68
2020/12/25 07:17:17;;;;;;;12.70;7.45;;;2.60;99.90;;;;;;5015561;28;20057;-68
2020/12/25 07:19:43;;;;;;;12.55;7.60;;;2.60;99.90;;;;;;5009015;28;20132;-68
2020/12/25 07:22:11;;;;;;;11.27;7.32;;;2.50;99.90;;;;;;5023424;28;20049;-68
2020/12/25 07:24:41;;;;;;;11.75;7.55;;;2.50;99.90;;;;;;5018978;28;20076;-68
2020/12/25 07:27:09;;;;;;;13.27;7.07;;;2.40;99.90;;;;;;5021576;28;20099;-68
2020/12/25 07:29:36;;;;;;;13.93;7.68;;;2.40;99.90;;;;;;5017624;28;20115;-68
2020/12/25 07:32:03;;;;;;;14.48;7.47;;;2.40;99.90;;;;;;5021138;28;20063;-68
2020/12/25 07:34:29;;;;;;;17.60;8.35;;;2.40;99.90;;;;;;5012028;28;20124;-68
2020/12/25 07:36:57;;;;;;;13.50;7.95;;;2.40;99.90;;;;;;5010185;28;20092;-68
2020/12/25 07:39:28;;;;;;;10.70;6.70;;;2.40;99.90;;;;;;5023721;28;20089;-68
2020/12/25 07:41:55;;;;;;;12.68;6.65;;;2.50;99.90;;;;;;5030590;28;20103;-68
2020/12/25 07:44:23;;;;;;;10.35;5.93;;;2.50;99.90;;;;;;5015725;28;20053;-68
2020/12/25 07:46:51;;;;;;;12.65;7.82;;;2.60;99.90;;;;;;5024708;28;20129;-68
2020/12/25 07:49:19;;;;;;;9.30;5.90;;;2.50;99.90;;;;;;4996534;28;20503;-68
2020/12/25 07:51:49;;;;;;;10.15;6.20;;;2.50;99.90;;;;;;5017572;28;20316;-68
2020/12/25 07:54:17;;;;;;;11.57;6.90;;;2.60;99.90;;;;;;5031146;28;20100;-68
2020/12/25 07:56:44;;;;;;;10.65;6.30;;;2.50;99.90;;;;;;5018921;28;20053;-68
2020/12/25 07:59:10;;;;;;;13.30;7.20;;;2.50;99.90;;;;;;5029394;28;20246;-68
2020/12/25 08:01:37;;;;;;;11.48;6.63;;;2.40;99.90;;;;;;5025831;28;20191;-68
2020/12/25 08:04:05;;;;;;;11.55;6.57;;;2.30;99.90;;;;;;5021330;28;20049;-68
2020/12/25 08:06:33;;;;;;;9.50;6.00;;;2.30;99.90;;;;;;5028936;28;20103;-68
2020/12/25 08:09:06;;;;;;;10.40;6.63;;;2.30;99.90;;;;;;5017824;28;20120;-68
2020/12/25 08:11:33;;;;;;;9.93;6.57;;;2.30;99.90;;;;;;5014282;28;20141;-70
2020/12/25 08:14:05;;;;;;;9.93;6.32;;;2.30;99.90;;;;;;5014736;28;20312;-70
2020/12/25 08:16:35;;;;;;;17.38;8.00;;;2.30;99.90;;;;;;5024696;28;20061;-70
2020/12/25 08:19:05;;;;;;;12.80;6.53;;;2.20;99.90;;;;;;5026582;28;20132;-67
2020/12/25 08:21:37;;;;;;;10.38;6.13;;;2.20;99.90;;;;;;5023769;28;20157;-70
2020/12/25 08:24:09;;;;;;;12.23;6.05;;;2.20;99.90;;;;;;5028654;28;20046;-70
2020/12/25 08:26:39;;;;;;;14.00;6.07;;;2.30;99.90;;;;;;5024825;28;20076;-67
2020/12/25 08:29:06;;;;;;;9.57;6.15;;;2.30;99.90;;;;;;5012505;28;20049;-70
2020/12/25 08:31:38;;;;;;;12.50;6.53;;;2.40;99.90;;;;;;5012910;28;20283;-69
2020/12/25 08:34:05;;;;;;;12.82;6.68;;;2.40;99.90;;;;;;5022929;28;20485;-70
2020/12/25 08:36:32;;;;;;;12.60;6.32;;;2.30;99.90;;;;;;4999717;28;20495;-69
2020/12/25 08:39:07;;;;;;;11.95;7.55;;;2.50;99.90;;;;;;5033414;28;20441;-69
2020/12/25 08:41:34;;;;;;;13.80;6.38;;;2.40;99.90;;;;;;5019962;28;20438;-69
2020/12/25 08:44:12;;;;;;;13.75;7.30;;;2.50;99.90;;;;;;5032875;28;20140;-67
2020/12/25 08:46:39;;;;;;;10.82;6.80;;;2.40;99.90;;;;;;5022498;28;20050;-69
2020/12/25 08:49:07;;;;;;;12.90;7.15;;;2.50;99.90;;;;;;5014099;28;20058;-69
2020/12/25 08:51:39;;;;;;;10.77;6.50;;;2.60;99.90;;;;;;5024075;28;20045;-70
2020/12/25 08:54:06;;;;;;;12.05;6.45;;;2.60;99.90;;;;;;5021329;28;20042;-69
2020/12/25 08:56:35;;;;;;;11.57;6.70;;;2.70;99.90;;;;;;5025847;28;20311;-69
2020/12/25 08:59:04;;;;;;;9.55;6.65;;;2.80;99.90;;;;;;5031483;28;20141;-70
2020/12/25 09:01:36;;;;;;;10.23;6.15;;;2.80;99.90;;;;;;5014869;28;20058;-68
2020/12/25 09:04:03;;;;;;;13.02;6.07;;;3.00;99.90;;;;;;5011270;28;20105;-70
2020/12/25 09:06:30;;;;;;;12.38;6.10;;;2.90;99.90;;;;;;5024282;28;20453;-69
2020/12/25 09:08:57;;;;;;;7.55;5.25;;;2.80;99.90;;;;;;5025049;28;20485;-69
2020/12/25 09:11:25;;;;;;;10.77;5.57;;;2.80;99.90;;;;;;5015514;28;20069;-70
2020/12/25 09:13:52;;;;;;;10.57;5.53;;;2.70;99.90;;;;;;5013274;28;20054;-69
2020/12/25 09:16:18;;;;;;;8.30;5.40;;;2.80;99.90;;;;;;5031195;28;20042;-70
2020/12/25 09:18:45;;;;;;;7.60;5.18;;;2.60;99.90;;;;;;5029344;28;20123;-70
2020/12/25 09:21:14;;;;;;;9.05;5.07;;;2.50;99.90;;;;;;5018227;28;20072;-70
2020/12/25 09:23:40;;;;;;;8.38;4.93;;;2.50;99.90;;;;;;5020553;28;20132;-70
2020/12/25 09:26:10;;;;;;;7.72;4.55;;;2.70;99.90;;;;;;5019273;28;20092;-69
2020/12/25 09:28:36;;;;;;;7.15;4.60;;;2.80;99.90;;;;;;5014114;28;20074;-70
2020/12/25 09:31:08;;;;;;;6.15;3.78;;;2.70;99.90;;;;;;5018126;28;20132;-69
2020/12/25 09:33:35;;;;;;;7.03;4.20;;;2.70;99.30;;;;;;5020450;28;20080;-70
2020/12/25 09:36:03;;;;;;;7.40;4.03;;;2.60;99.50;;;;;;5010688;28;20869;-70
2020/12/25 09:38:30;;;;;;;8.45;4.15;;;2.60;99.70;;;;;;5008839;28;20141;-69
2020/12/25 09:40:56;;;;;;;6.88;3.45;;;2.50;99.90;;;;;;5015977;28;20087;-67
2020/12/25 09:43:22;;;;;;;7.65;4.13;;;2.60;99.90;;;;;;5028810;28;20045;-68
2020/12/25 09:45:49;;;;;;;5.72;3.30;;;2.60;99.90;;;;;;5024192;28;20136;-68
2020/12/25 09:48:15;;;;;;;8.27;3.75;;;2.70;99.90;;;;;;5029163;28;20108;-70
2020/12/25 09:50:43;;;;;;;7.72;3.40;;;2.70;99.90;;;;;;5028619;28;20049;-70
2020/12/25 09:53:09;;;;;;;7.28;2.80;;;2.70;99.90;;;;;;5018620;28;20038;-69
2020/12/25 09:55:40;;;;;;;8.75;2.88;;;2.70;99.90;;;;;;5012141;28;20057;-70
2020/12/25 09:58:07;;;;;;;5.95;3.05;;;2.60;99.90;;;;;;4993933;28;20061;-69
2020/12/25 10:00:34;;;;;;;8.25;3.10;;;2.50;99.70;;;;;;5007232;28;20065;-69
2020/12/25 10:03:00;;;;;;;6.10;2.78;;;2.60;99.90;;;;;;5010207;28;20134;-70
2020/12/25 10:05:27;;;;;;;5.47;2.67;;;2.70;99.90;;;;;;5010317;28;20115;-70
2020/12/25 10:07:53;;;;;;;8.10;2.40;;;2.70;99.90;;;;;;5008278;28;20250;-69
2020/12/25 10:10:23;;;;;;;7.07;2.53;;;2.70;99.90;;;;;;5011659;28;20049;-69
2020/12/25 10:12:50;;;;;;;6.63;2.60;;;2.70;99.90;;;;;;5008536;28;20049;-70
2020/12/25 10:15:21;;;;;;;7.05;2.60;;;2.80;99.80;;;;;;5009529;28;20400;-70
2020/12/25 10:17:47;;;;;;;8.15;2.45;;;2.80;99.90;;;;;;5008690;28;20568;-69
2020/12/25 10:20:14;;;;;;;4.68;2.38;;;2.90;99.40;;;;;;5008052;28;20049;-69
2020/12/25 10:22:40;;;;;;;3.40;1.90;;;2.90;98.70;;;;;;5007640;28;20080;-69
2020/12/25 10:25:07;;;;;;;5.05;2.42;;;2.90;99.40;;;;;;5009452;28;20046;-70
2020/12/25 10:27:39;;;;;;;7.20;2.33;;;2.90;99.90;;;;;;5008206;28;20143;-70
2020/12/25 10:30:06;;;;;;;5.25;2.15;;;2.80;99.40;;;;;;5008536;28;20458;-69
2020/12/25 10:32:37;;;;;;;4.97;2.33;;;2.90;99.60;;;;;;5007690;28;20045;-69
2020/12/25 10:35:03;;;;;;;6.75;2.45;;;2.90;99.40;;;;;;5006597;28;20042;-69
2020/12/25 10:37:30;;;;;;;6.85;2.55;;;2.90;98.70;;;;;;5008993;28;20046;-70
2020/12/25 10:39:57;;;;;;;7.13;2.65;;;2.90;98.90;;;;;;5008441;28;20057;-69
2020/12/25 10:42:23;;;;;;;6.20;2.15;;;3.10;98.30;;;;;;5009004;28;20049;-70
2020/12/25 10:44:50;;;;;;;5.65;1.77;;;3.10;98.70;;;;;;5009424;28;20136;-70
2020/12/25 10:47:16;;;;;;;7.13;2.35;;;3.20;98.10;;;;;;5005657;28;20078;-69
2020/12/25 10:49:42;;;;;;;5.13;2.10;;;3.20;98.30;;;;;;5008445;28;20053;-70
2020/12/25 10:52:09;;;;;;;4.68;1.80;;;3.40;98.40;;;;;;5008771;28;20109;-69
2020/12/25 10:54:35;;;;;;;8.65;2.13;;;3.40;98.40;;;;;;5008905;28;20045;-69
2020/12/25 10:57:02;;;;;;;6.53;1.83;;;3.20;97.80;;;;;;5009482;28;20042;-69
2020/12/25 10:59:28;;;;;;;5.38;2.10;;;3.20;96.80;;;;;;5013676;28;20054;-68
2020/12/25 11:01:55;;;;;;;5.32;1.95;;;3.10;97.40;;;;;;5022358;28;20045;-70
2020/12/25 11:04:21;;;;;;;4.65;1.60;;;3.00;97.60;;;;;;5017546;28;20077;-69
2020/12/25 11:06:48;;;;;;;6.70;1.90;;;2.90;97.80;;;;;;5006703;28;20153;-70
2020/12/25 11:09:15;;;;;;;3.92;1.88;;;2.90;98.10;;;;;;5009377;28;20144;-70
2020/12/25 11:11:41;;;;;;;3.85;1.70;;;3.00;98.40;;;;;;5008297;28;20046;-70
2020/12/25 11:14:09;;;;;;;4.25;2.05;;;3.10;98.30;;;;;;5008801;28;20042;-70
2020/12/25 11:16:37;;;;;;;7.05;2.10;;;3.10;98.20;;;;;;5008198;28;20474;-70
2020/12/25 11:19:07;;;;;;;6.38;1.67;;;3.20;97.60;;;;;;5007358;28;20099;-70
2020/12/25 11:21:33;;;;;;;6.80;2.05;;;3.20;97.50;;;;;;5003680;28;20049;-68
2020/12/25 11:24:01;;;;;;;4.55;1.80;;;3.20;97.40;;;;;;5008018;28;20077;-68
2020/12/25 11:26:32;;;;;;;7.65;1.80;;;3.20;96.80;;;;;;5007186;28;20054;-68
2020/12/25 11:29:01;;;;;;;5.30;1.67;;;3.40;97.60;;;;;;5009632;28;20073;-68
2020/12/25 11:31:29;;;;;;;6.47;1.90;;;3.20;96.60;;;;;;5006349;28;20420;-69
2020/12/25 11:33:56;;;;;;;5.47;1.67;;;3.40;97.80;;;;;;5006554;28;20045;-68
2020/12/25 11:36:34;;;;;;;5.13;1.83;;;3.40;97.20;;;;;;5008307;28;20141;-69
2020/12/25 11:39:02;;;;;;;4.55;1.83;;;3.40;97.70;;;;;;5006234;28;20038;-69
2020/12/25 11:41:28;;;;;;;4.22;1.50;;;3.20;97.10;;;;;;4998299;28;20459;-68
2020/12/25 11:43:56;;;;;;;7.40;1.63;;;3.20;97.70;;;;;;5006854;28;20050;-68
2020/12/25 11:46:26;;;;;;;7.80;1.95;;;3.10;97.20;;;;;;5007265;28;20468;-68
2020/12/25 11:48:54;;;;;;;3.35;1.60;;;3.10;97.70;;;;;;5008906;28;20050;-68
2020/12/25 11:51:26;;;;;;;5.20;1.70;;;3.00;97.50;;;;;;5008136;28;20050;-69
2020/12/25 11:53:53;;;;;;;3.38;1.45;;;3.00;97.50;;;;;;5003589;28;20523;-68
2020/12/25 11:56:21;;;;;;;7.05;1.55;;;3.00;97.20;;;;;;5005147;28;20069;-69
2020/12/25 11:58:48;;;;;;;7.43;1.50;;;2.90;96.60;;;;;;5005728;28;20042;-68
2020/12/25 12:01:15;;;;;;;8.10;1.85;;;3.00;96.90;;;;;;5007029;28;20053;-68
2020/12/25 12:03:42;;;;;;;3.92;1.48;;;3.10;96.90;;;;;;5007308;28;20133;-69
2020/12/25 12:06:10;;;;;;;7.28;1.65;;;3.10;97.40;;;;;;5009318;28;20054;-68
2020/12/25 12:08:37;;;;;;;3.95;1.55;;;3.20;96.80;;;;;;5007664;28;20523;-68
2020/12/25 12:11:04;;;;;;;4.63;1.10;;;3.20;95.90;;;;;;5006760;28;20056;-68
2020/12/25 12:13:33;;;;;;;5.45;1.90;;;3.20;96.70;;;;;;5006736;28;20053;-68
2020/12/25 12:15:59;;;;;;;4.10;1.55;;;3.20;95.80;;;;;;5005611;28;20069;-68
2020/12/25 12:18:26;;;;;;;6.15;1.27;;;3.20;95.30;;;;;;5003359;28;20125;-68
2020/12/25 12:20:52;;;;;;;5.72;1.38;;;3.20;94.40;;;;;;5006891;28;20137;-68
2020/12/25 12:23:19;;;;;;;4.82;1.40;;;3.10;94.90;;;;;;5006106;28;20137;-68
2020/12/25 12:25:45;;;;;;;5.57;1.40;;;3.10;96.00;;;;;;5009715;28;20058;-68
2020/12/25 12:28:11;;;;;;;5.45;1.23;;;3.00;93.90;;;;;;5007789;28;20081;-68
2020/12/25 12:30:38;;;;;;;5.38;1.38;;;3.10;95.10;;;;;;5012273;28;20081;-68
2020/12/25 12:33:05;;;;;;;4.32;1.20;;;3.00;93.70;;;;;;5012313;28;20050;-69
2020/12/25 12:35:31;;;;;;;2.72;0.90;;;3.20;94.00;;;;;;5012969;28;20053;-69
2020/12/25 12:37:57;;;;;;;5.15;0.90;;;3.30;94.90;;;;;;5011525;28;20088;-68
2020/12/25 12:40:24;;;;;;;4.03;1.10;;;3.40;95.30;;;;;;5012108;28;20133;-69
2020/12/25 12:42:50;;;;;;;6.57;1.20;;;3.40;94.20;;;;;;5012221;28;20098;-69
2020/12/25 12:45:16;;;;;;;6.47;1.10;;;3.50;94.10;;;;;;5012394;28;20132;-68
2020/12/25 12:47:43;;;;;;;3.55;0.90;;;3.40;93.70;;;;;;5012015;28;20137;-69
2020/12/25 12:50:11;;;;;;;3.67;1.33;;;3.40;94.00;;;;;;5011940;28;20121;-68
2020/12/25 12:52:37;;;;;;;3.60;0.80;;;3.70;94.00;;;;;;5012015;28;20104;-69
2020/12/25 12:55:03;;;;;;;9.20;0.98;;;3.90;93.90;;;;;;5011919;28;20054;-69
2020/12/25 12:57:29;;;;;;;5.20;1.52;;;3.70;93.20;;;;;;5011326;28;20083;-68